createdAt,value
2019-02-17T00:00:48.165Z,77.43
2019-02-17T00:03:22.451Z,77.66
2019-02-17T00:05:55.156Z,78.04
2019-02-17T00:08:28.258Z,78.05
2019-02-17T00:11:01.377Z,78.00
2019-02-17T00:13:34.052Z,78.29
2019-02-17T00:16:07.486Z,78.19
2019-02-17T00:18:41.121Z,77.93
2019-02-17T00:21:14.562Z,77.67
2019-02-17T00:23:48.081Z,77.65
2019-02-17T00:26:31.631Z,77.85
2019-02-17T00:29:04.865Z,77.62
2019-02-17T00:31:40.089Z,77.56
2019-02-17T00:34:13.875Z,77.51
2019-02-17T00:36:49.108Z,77.62
2019-02-17T00:39:22.518Z,77.71
2019-02-17T00:41:55.772Z,77.91
2019-02-17T00:44:28.867Z,78.07
2019-02-17T00:47:11.825Z,78.10
2019-02-17T00:49:53.990Z,77.89
2019-02-17T00:52:27.120Z,77.71
2019-02-17T00:55:00.857Z,77.66
2019-02-17T00:57:34.355Z,77.92
2019-02-17T01:00:08.080Z,77.87
2019-02-17T01:02:42.643Z,77.67
2019-02-17T01:05:25.966Z,77.46
2019-02-17T01:07:59.824Z,77.47
2019-02-17T01:10:41.979Z,77.31
2019-02-17T01:13:15.428Z,77.56
2019-02-17T01:15:48.497Z,77.72
2019-02-17T01:18:31.115Z,78.05
2019-02-17T01:21:13.950Z,78.60
2019-02-17T01:23:56.908Z,78.77
2019-02-17T01:26:39.739Z,79.09
2019-02-17T01:29:21.999Z,79.05
2019-02-17T01:31:55.263Z,78.43
2019-02-17T01:34:29.098Z,78.26
2019-02-17T01:37:02.568Z,78.07
2019-02-17T01:39:36.075Z,77.86
2019-02-17T01:42:10.131Z,78.24
2019-02-17T01:44:43.574Z,78.51
2019-02-17T01:47:17.064Z,78.22
2019-02-17T01:49:50.768Z,77.77
2019-02-17T01:52:24.388Z,77.84
2019-02-17T01:54:57.860Z,78.24
2019-02-17T01:57:31.125Z,78.65
2019-02-17T02:00:04.959Z,78.69
2019-02-17T02:02:40.036Z,78.89
2019-02-17T02:05:14.754Z,79.11
2019-02-17T02:07:57.087Z,79.21
2019-02-17T02:10:39.981Z,79.01
2019-02-17T02:13:23.190Z,79.14
2019-02-17T02:16:11.281Z,79.34
2019-02-17T02:18:44.673Z,78.99
2019-02-17T02:21:18.423Z,78.98
2019-02-17T02:23:52.305Z,79.03
2019-02-17T02:26:26.038Z,79.14
2019-02-17T02:29:11.848Z,79.13
2019-02-17T02:31:55.140Z,79.24
2019-02-17T02:34:28.554Z,79.46
2019-02-17T02:37:17.534Z,79.82
2019-02-17T02:39:51.105Z,80.16
2019-02-17T02:42:33.186Z,79.96
2019-02-17T02:45:07.367Z,79.38
2019-02-17T02:47:50.267Z,78.94
2019-02-17T02:50:32.879Z,78.96
2019-02-17T02:53:15.091Z,79.26
2019-02-17T02:55:48.600Z,79.41
2019-02-17T02:58:22.493Z,79.45
2019-02-17T03:00:55.918Z,79.74
2019-02-17T03:03:29.398Z,80.32
2019-02-17T03:06:22.114Z,80.23
2019-02-17T03:08:56.242Z,80.08
2019-02-17T03:11:29.960Z,80.18
2019-02-17T03:14:15.331Z,80.17
2019-02-17T03:16:49.165Z,80.07
2019-02-17T03:19:31.794Z,80.18
2019-02-17T03:22:13.987Z,80.14
2019-02-17T03:24:47.169Z,79.92
2019-02-17T03:27:20.612Z,79.83
2019-02-17T03:30:09.022Z,79.81
2019-02-17T03:32:51.920Z,80.13
2019-02-17T03:35:36.691Z,80.28
2019-02-17T03:38:19.171Z,80.17
2019-02-17T03:40:52.754Z,80.01
2019-02-17T03:43:26.890Z,80.19
2019-02-17T03:46:08.950Z,80.04
2019-02-17T03:48:42.748Z,79.93
2019-02-17T03:51:16.489Z,79.96
2019-02-17T03:53:50.207Z,80.00
2019-02-17T03:56:24.107Z,79.97
2019-02-17T03:59:06.571Z,79.83
2019-02-17T04:01:40.771Z,79.65
2019-02-17T04:04:22.868Z,79.66
2019-02-17T04:06:56.438Z,79.77
2019-02-17T04:09:30.194Z,80.05
2019-02-17T04:12:03.309Z,80.29
2019-02-17T04:14:36.399Z,80.60
2019-02-17T04:17:18.221Z,80.67
2019-02-17T04:19:50.576Z,80.45
2019-02-17T04:22:24.256Z,80.52
2019-02-17T04:24:57.722Z,80.67
2019-02-17T04:27:31.254Z,80.89
2019-02-17T04:30:04.585Z,80.85
2019-02-17T04:32:37.964Z,80.91
2019-02-17T04:35:11.468Z,81.34
2019-02-17T04:37:44.945Z,81.66
2019-02-17T04:40:18.769Z,81.49
2019-02-17T04:42:52.172Z,81.02
2019-02-17T04:45:25.927Z,80.87
2019-02-17T04:47:59.638Z,80.96
2019-02-17T04:50:32.781Z,80.73
2019-02-17T04:53:21.721Z,80.75
2019-02-17T04:55:55.203Z,80.70
2019-02-17T04:58:38.179Z,80.62
2019-02-17T05:01:11.877Z,80.60
2019-02-17T05:03:45.761Z,80.54
2019-02-17T05:06:19.564Z,80.63
2019-02-17T05:08:53.452Z,80.98
2019-02-17T05:11:27.747Z,81.18
2019-02-17T05:14:10.161Z,81.20
2019-02-17T05:16:52.555Z,80.88
2019-02-17T05:19:26.071Z,80.52
2019-02-17T05:21:59.429Z,80.37
2019-02-17T05:24:33.641Z,80.36
2019-02-17T05:27:07.390Z,80.65
2019-02-17T05:29:49.920Z,81.18
2019-02-17T05:32:23.807Z,81.41
2019-02-17T05:35:06.303Z,81.56
2019-02-17T05:37:49.100Z,81.79
2019-02-17T05:40:23.197Z,81.75
2019-02-17T05:43:05.572Z,81.63
2019-02-17T05:45:38.755Z,81.58
2019-02-17T05:48:12.443Z,81.55
2019-02-17T05:50:46.444Z,81.87
2019-02-17T05:53:20.320Z,82.18
2019-02-17T05:56:03.146Z,82.26
2019-02-17T05:58:46.020Z,82.12
2019-02-17T06:01:29.519Z,82.11
2019-02-17T06:04:03.220Z,82.08
2019-02-17T06:06:37.049Z,82.33
2019-02-17T06:09:10.452Z,82.52
2019-02-17T06:11:43.892Z,82.53
2019-02-17T06:14:17.577Z,82.25
2019-02-17T06:16:50.997Z,82.16
2019-02-17T06:19:24.360Z,82.18
2019-02-17T06:22:10.053Z,82.15
2019-02-17T06:24:52.339Z,81.95
2019-02-17T06:27:26.240Z,82.06
2019-02-17T06:30:10.087Z,82.49
2019-02-17T06:32:52.895Z,82.51
2019-02-17T06:35:35.882Z,82.50
2019-02-17T06:38:09.533Z,82.61
2019-02-17T06:40:42.905Z,82.53
2019-02-17T06:43:16.454Z,82.56
2019-02-17T06:45:50.229Z,82.53
2019-02-17T06:48:23.918Z,82.50
2019-02-17T06:50:57.381Z,82.62
2019-02-17T06:53:31.810Z,82.72
2019-02-17T06:56:20.708Z,82.67
2019-02-17T06:59:12.367Z,82.61
2019-02-17T07:01:55.253Z,82.48
2019-02-17T07:04:55.279Z,82.35
2019-02-17T07:07:29.070Z,82.16
2019-02-17T07:10:11.654Z,82.10
2019-02-17T07:12:45.100Z,82.19
2019-02-17T07:15:18.241Z,82.43
2019-02-17T07:17:51.774Z,82.49
2019-02-17T07:20:26.064Z,82.59
2019-02-17T07:22:59.590Z,82.72
2019-02-17T07:25:32.782Z,82.64
2019-02-17T07:28:06.252Z,82.02
2019-02-17T07:30:39.962Z,81.94
2019-02-17T07:33:13.834Z,81.89
2019-02-17T07:35:48.117Z,82.10
2019-02-17T07:38:36.175Z,82.18
2019-02-17T07:41:09.956Z,81.96
2019-02-17T07:43:43.018Z,81.85
2019-02-17T07:46:17.510Z,81.93
2019-02-17T07:48:50.919Z,81.90
2019-02-17T07:51:24.445Z,81.86
2019-02-17T07:53:57.709Z,82.09
2019-02-17T07:56:31.662Z,82.16
2019-02-17T07:59:05.437Z,82.35
2019-02-17T08:01:48.282Z,82.57
2019-02-17T08:04:22.151Z,82.78
2019-02-17T08:07:05.473Z,82.80
2019-02-17T08:09:39.231Z,82.94
2019-02-17T08:12:12.698Z,83.20
2019-02-17T08:14:46.174Z,83.28
2019-02-17T08:17:19.665Z,83.13
2019-02-17T08:19:53.916Z,83.16
2019-02-17T08:22:36.259Z,83.33
2019-02-17T08:25:19.419Z,83.52
2019-02-17T08:27:46.943Z,83.70
2019-02-17T08:30:34.983Z,83.76
2019-02-17T08:33:10.360Z,83.78
2019-02-17T08:35:43.880Z,83.81
2019-02-17T08:38:17.110Z,83.88
2019-02-17T08:40:50.892Z,83.86
2019-02-17T08:43:24.624Z,83.75
2019-02-17T08:45:58.111Z,83.40
2019-02-17T08:48:31.910Z,83.08
2019-02-17T08:51:05.039Z,82.61
2019-02-17T08:53:38.972Z,82.30
2019-02-17T08:56:12.369Z,82.00
2019-02-17T08:58:45.470Z,81.58
2019-02-17T09:01:34.018Z,81.17
2019-02-17T09:04:07.531Z,80.84
2019-02-17T09:06:40.617Z,80.54
2019-02-17T09:09:14.052Z,80.30
2019-02-17T09:11:47.655Z,79.82
2019-02-17T09:14:21.102Z,79.22
2019-02-17T09:16:54.966Z,78.93
2019-02-17T09:19:30.252Z,78.75
2019-02-17T09:22:04.287Z,78.20
2019-02-17T09:24:38.123Z,77.72
2019-02-17T09:27:23.499Z,77.42
2019-02-17T09:30:12.215Z,77.21
2019-02-17T09:32:54.473Z,76.99
2019-02-17T09:35:27.501Z,76.84
2019-02-17T09:38:01.605Z,76.36
2019-02-17T09:40:32.639Z,76.02
2019-02-17T09:43:21.630Z,75.89
2019-02-17T09:46:10.867Z,75.46
2019-02-17T09:49:00.020Z,75.11
2019-02-17T09:51:49.634Z,74.48
2019-02-17T09:54:40.859Z,73.97
2019-02-17T09:57:29.817Z,73.50
2019-02-17T10:00:19.177Z,72.90
2019-02-17T10:03:09.019Z,72.62
2019-02-17T10:05:58.529Z,72.28
2019-02-17T10:08:48.220Z,71.35
2019-02-17T10:11:37.554Z,70.87
2019-02-17T10:14:27.010Z,70.88
2019-02-17T10:17:16.580Z,70.54
2019-02-17T10:20:05.390Z,69.86
2019-02-17T10:22:54.299Z,68.99
2019-02-17T10:25:42.999Z,68.75
2019-02-17T10:28:41.850Z,67.78
2019-02-17T10:31:24.011Z,67.72
2019-02-17T10:34:13.415Z,66.77
2019-02-17T10:37:02.730Z,66.47
2019-02-17T10:39:51.861Z,65.21
2019-02-17T10:42:41.099Z,65.04
2019-02-17T10:45:30.129Z,63.87
2019-02-17T10:48:19.717Z,62.34
2019-02-17T10:51:08.850Z,62.28
2019-02-17T10:53:57.728Z,61.88
2019-02-17T10:56:47.363Z,60.99
2019-02-17T10:59:36.336Z,59.62
2019-02-17T11:02:26.077Z,59.63
2019-02-17T11:05:15.358Z,59.75
2019-02-17T11:08:04.488Z,58.87
2019-02-17T11:10:53.795Z,57.53
2019-02-17T11:13:42.782Z,58.10
2019-02-17T11:16:31.528Z,58.05
2019-02-17T11:19:21.048Z,56.81
2019-02-17T11:22:10.427Z,55.78
2019-02-17T11:24:59.924Z,55.80
2019-02-17T11:27:48.729Z,54.17
2019-02-17T11:30:37.828Z,55.47
2019-02-17T11:33:27.287Z,54.01
2019-02-17T11:36:16.698Z,54.48
2019-02-17T11:39:09.354Z,53.70
2019-02-17T11:41:58.915Z,53.52
2019-02-17T11:44:41.655Z,53.42
2019-02-17T11:47:14.537Z,51.24
2019-02-17T11:49:49.947Z,51.07
2019-02-17T11:52:23.563Z,51.17
2019-02-17T11:54:56.669Z,51.90
2019-02-17T11:57:30.096Z,50.45
2019-02-17T12:00:03.551Z,48.93
2019-02-17T12:02:45.531Z,49.77
2019-02-17T12:05:19.896Z,50.21
2019-02-17T12:08:02.129Z,50.45
2019-02-17T12:10:35.588Z,50.05
2019-02-17T12:13:09.156Z,50.47
2019-02-17T12:15:42.276Z,50.16
2019-02-17T12:18:15.727Z,49.55
2019-02-17T12:21:03.674Z,49.77
2019-02-17T12:24:14.761Z,49.28
2019-02-17T12:26:54.397Z,48.47
2019-02-17T12:29:38.417Z,49.30
2019-02-17T12:32:12.452Z,47.87
2019-02-17T12:34:57.325Z,48.55
2019-02-17T12:37:30.750Z,48.77
2019-02-17T12:40:03.530Z,47.00
2019-02-17T12:42:46.058Z,47.50
2019-02-17T12:45:19.314Z,46.72
2019-02-17T12:47:58.250Z,46.45
2019-02-17T12:50:27.995Z,46.79
2019-02-17T12:53:01.139Z,46.52
2019-02-17T12:55:43.136Z,45.91
2019-02-17T12:58:16.955Z,46.12
2019-02-17T13:00:50.749Z,46.74
2019-02-17T13:03:34.984Z,46.02
2019-02-17T13:06:09.020Z,46.15
2019-02-17T13:08:51.357Z,45.82
2019-02-17T13:11:24.754Z,46.20
2019-02-17T13:13:58.513Z,46.02
2019-02-17T13:16:31.763Z,46.18
2019-02-17T13:19:05.214Z,46.90
2019-02-17T13:21:39.543Z,46.28
2019-02-17T13:24:21.963Z,46.76
2019-02-17T13:26:55.474Z,46.20
2019-02-17T13:29:29.880Z,46.95
2019-02-17T13:32:12.156Z,46.85
2019-02-17T13:34:45.294Z,46.84
2019-02-17T13:37:18.895Z,46.77
2019-02-17T13:39:52.890Z,47.46
2019-02-17T13:42:26.145Z,47.62
2019-02-17T13:45:10.949Z,48.32
2019-02-17T13:47:44.066Z,48.42
2019-02-17T13:50:17.168Z,49.00
2019-02-17T13:52:59.755Z,48.85
2019-02-17T13:55:41.899Z,49.27
2019-02-17T13:58:15.469Z,49.43
2019-02-17T14:00:48.572Z,50.04
2019-02-17T14:03:30.638Z,50.29
2019-02-17T14:06:04.027Z,50.02
2019-02-17T14:08:37.755Z,50.81
2019-02-17T14:11:11.611Z,51.43
2019-02-17T14:13:45.224Z,51.65
2019-02-17T14:16:18.343Z,51.90
2019-02-17T14:18:51.853Z,51.92
2019-02-17T14:21:25.457Z,51.85
2019-02-17T14:23:58.895Z,51.13
2019-02-17T14:26:32.414Z,51.13
2019-02-17T14:29:05.527Z,52.04
2019-02-17T14:31:53.929Z,51.78
2019-02-17T14:34:27.859Z,52.31
2019-02-17T14:37:10.961Z,52.99
2019-02-17T14:39:53.600Z,53.57
2019-02-17T14:42:36.375Z,53.45
2019-02-17T14:45:24.921Z,53.65
2019-02-17T14:47:58.446Z,53.57
2019-02-17T14:50:31.674Z,53.56
2019-02-17T14:53:05.131Z,53.94
2019-02-17T14:55:39.381Z,54.39
2019-02-17T14:58:13.049Z,54.49
2019-02-17T15:00:46.754Z,55.33
2019-02-17T15:03:29.151Z,55.43
2019-02-17T15:06:02.398Z,55.48
2019-02-17T15:08:36.244Z,55.47
2019-02-17T15:11:10.002Z,55.63
2019-02-17T15:13:43.780Z,56.29
2019-02-17T15:16:17.160Z,56.68
2019-02-17T15:18:51.220Z,56.24
2019-02-17T15:21:34.100Z,56.47
2019-02-17T15:24:16.855Z,56.23
2019-02-17T15:26:50.471Z,56.78
2019-02-17T15:29:23.578Z,57.11
2019-02-17T15:31:57.137Z,57.20
2019-02-17T15:34:31.311Z,57.67
2019-02-17T15:37:19.939Z,58.31
2019-02-17T15:39:53.228Z,58.59
2019-02-17T15:42:27.354Z,58.56
2019-02-17T15:45:15.560Z,58.75
2019-02-17T15:47:49.032Z,59.26
2019-02-17T15:50:22.421Z,59.48
2019-02-17T15:52:55.923Z,59.51
2019-02-17T15:55:29.492Z,59.28
2019-02-17T15:58:03.180Z,59.20
2019-02-17T16:00:36.984Z,59.08
2019-02-17T16:03:10.245Z,59.32
2019-02-17T16:05:52.021Z,59.48
2019-02-17T16:08:25.135Z,60.13
2019-02-17T16:10:58.498Z,61.31
2019-02-17T16:13:41.002Z,61.80
2019-02-17T16:16:23.245Z,62.58
2019-02-17T16:18:57.207Z,63.01
2019-02-17T16:21:30.916Z,63.40
2019-02-17T16:24:04.564Z,63.89
2019-02-17T16:26:38.729Z,64.50
2019-02-17T16:29:21.325Z,65.30
2019-02-17T16:32:03.742Z,65.75
2019-02-17T16:34:38.734Z,65.94
2019-02-17T16:37:12.665Z,66.32
2019-02-17T16:39:58.436Z,66.59
2019-02-17T16:42:32.229Z,66.82
2019-02-17T16:45:06.157Z,67.28
2019-02-17T16:47:48.815Z,67.90
2019-02-17T16:50:31.368Z,68.40
2019-02-17T16:53:04.605Z,68.52
2019-02-17T16:55:38.268Z,68.90
2019-02-17T16:58:11.361Z,69.25
2019-02-17T17:00:44.662Z,69.50
2019-02-17T17:03:27.579Z,69.88
2019-02-17T17:06:09.947Z,69.72
2019-02-17T17:08:52.191Z,69.86
2019-02-17T17:11:25.771Z,69.69
2019-02-17T17:13:59.724Z,69.79
2019-02-17T17:16:34.206Z,70.09
2019-02-17T17:19:07.578Z,70.32
2019-02-17T17:21:49.716Z,70.44
2019-02-17T17:24:23.079Z,70.83
2019-02-17T17:26:56.161Z,71.15
2019-02-17T17:29:30.344Z,71.09
2019-02-17T17:32:03.258Z,70.98
2019-02-17T17:34:45.168Z,71.42
2019-02-17T17:37:19.000Z,71.61
2019-02-17T17:39:52.374Z,71.61
2019-02-17T17:42:25.659Z,71.68
2019-02-17T17:44:59.107Z,71.98
2019-02-17T17:47:32.531Z,72.01
2019-02-17T17:50:14.495Z,72.45
2019-02-17T17:52:48.410Z,72.73
2019-02-17T17:55:21.498Z,72.64
2019-02-17T17:57:55.021Z,72.67
2019-02-17T18:00:29.345Z,72.85
2019-02-17T18:03:12.275Z,72.99
2019-02-17T18:05:55.502Z,72.16
2019-02-17T18:08:28.974Z,72.62
2019-02-17T18:11:11.471Z,73.02
2019-02-17T18:13:53.665Z,73.28
2019-02-17T18:16:27.144Z,73.34
2019-02-17T18:19:00.965Z,73.83
2019-02-17T18:21:34.611Z,73.92
2019-02-17T18:24:08.289Z,74.03
2019-02-17T18:26:42.180Z,74.21
2019-02-17T18:29:15.427Z,74.57
2019-02-17T18:31:48.835Z,74.78
2019-02-17T18:34:21.949Z,74.82
2019-02-17T18:37:04.678Z,75.18
2019-02-17T18:39:38.067Z,75.21
2019-02-17T18:42:11.815Z,75.31
2019-02-17T18:44:44.915Z,75.55
2019-02-17T18:47:19.863Z,75.76
2019-02-17T18:49:53.684Z,75.51
2019-02-17T18:52:27.281Z,75.07
2019-02-17T18:55:01.320Z,74.80
2019-02-17T18:57:34.452Z,74.65
2019-02-17T19:00:09.640Z,74.56
2019-02-17T19:02:42.830Z,74.92
2019-02-17T19:05:31.924Z,75.25
2019-02-17T19:08:00.493Z,75.76
2019-02-17T19:10:34.887Z,76.14
2019-02-17T19:13:08.202Z,76.30
2019-02-17T19:15:50.594Z,76.66
2019-02-17T19:18:33.206Z,76.55
2019-02-17T19:21:06.716Z,76.46
2019-02-17T19:23:40.493Z,76.60
2019-02-17T19:26:13.645Z,76.41
2019-02-17T19:28:47.110Z,76.48
2019-02-17T19:31:20.688Z,76.37
2019-02-17T19:33:54.134Z,76.67
2019-02-17T19:36:28.055Z,76.81
2019-02-17T19:39:01.838Z,76.73
2019-02-17T19:41:36.370Z,76.62
2019-02-17T19:44:09.850Z,76.91
2019-02-17T19:46:52.031Z,76.34
2019-02-17T19:49:25.455Z,76.59
2019-02-17T19:51:58.852Z,76.54
2019-02-17T19:54:32.014Z,76.85
2019-02-17T19:57:05.422Z,76.44
2019-02-17T19:59:47.903Z,77.03
2019-02-17T20:02:45.916Z,76.87
2019-02-17T20:05:20.910Z,76.95
2019-02-17T20:07:54.085Z,77.02
2019-02-17T20:10:36.430Z,77.25
2019-02-17T20:13:09.838Z,77.36
2019-02-17T20:15:43.383Z,77.45
2019-02-17T20:18:16.578Z,77.58
2019-02-17T20:20:51.192Z,78.02
2019-02-17T20:23:39.683Z,78.20
2019-02-17T20:26:13.344Z,78.24
2019-02-17T20:28:47.161Z,77.63
2019-02-17T20:31:30.028Z,77.73
2019-02-17T20:34:14.570Z,77.85
2019-02-17T20:36:48.037Z,77.43
2019-02-17T20:39:30.531Z,76.43
2019-02-17T20:42:03.647Z,76.59
2019-02-17T20:44:37.017Z,77.10
2019-02-17T20:47:10.156Z,77.01
2019-02-17T20:49:55.384Z,77.17
2019-02-17T20:52:38.262Z,77.63
2019-02-17T20:55:21.080Z,77.89
2019-02-17T20:58:03.951Z,78.03
2019-02-17T21:00:47.212Z,78.30
2019-02-17T21:03:39.462Z,78.12
2019-02-17T21:06:13.187Z,77.97
2019-02-17T21:08:46.553Z,78.27
2019-02-17T21:11:19.784Z,77.80
2019-02-17T21:13:53.827Z,77.59
2019-02-17T21:16:27.494Z,77.94
2019-02-17T21:19:00.655Z,78.13
2019-02-17T21:21:34.059Z,78.16
2019-02-17T21:24:17.143Z,78.54
2019-02-17T21:26:50.547Z,78.37
2019-02-17T21:29:32.699Z,78.07
2019-02-17T21:32:06.143Z,77.90
2019-02-17T21:34:38.217Z,77.87
2019-02-17T21:37:12.014Z,77.78
2019-02-17T21:39:54.311Z,78.06
2019-02-17T21:42:27.925Z,78.30
2019-02-17T21:45:01.632Z,78.76
2019-02-17T21:47:35.128Z,79.26
2019-02-17T21:50:09.722Z,79.16
2019-02-17T21:52:52.228Z,78.74
2019-02-17T21:55:34.525Z,78.61
2019-02-17T21:58:08.314Z,78.90
2019-02-17T22:00:41.873Z,79.26
2019-02-17T22:03:16.058Z,79.40
2019-02-17T22:05:50.515Z,79.09
2019-02-17T22:08:25.489Z,78.43
2019-02-17T22:10:58.720Z,78.63
2019-02-17T22:13:32.199Z,78.99
2019-02-17T22:16:14.364Z,79.38
2019-02-17T22:18:48.266Z,79.65
2019-02-17T22:21:30.757Z,79.80
2019-02-17T22:24:04.265Z,79.63
2019-02-17T22:26:37.644Z,79.49
2019-02-17T22:29:12.865Z,79.39
2019-02-17T22:31:46.120Z,78.95
2019-02-17T22:34:19.523Z,78.58
2019-02-17T22:37:02.212Z,78.76
2019-02-17T22:39:35.326Z,79.32
2019-02-17T22:42:08.563Z,79.78
2019-02-17T22:44:41.945Z,79.96
2019-02-17T22:47:24.607Z,80.11
2019-02-17T22:50:07.773Z,80.06
2019-02-17T22:52:49.632Z,79.71
2019-02-17T22:55:23.443Z,79.58
2019-02-17T22:57:57.547Z,79.50
2019-02-17T23:00:57.760Z,79.43
2019-02-17T23:03:43.796Z,79.24
2019-02-17T23:06:27.142Z,79.09
2019-02-17T23:09:00.693Z,79.36
2019-02-17T23:11:34.483Z,79.62
2019-02-17T23:14:09.406Z,79.66
2019-02-17T23:16:43.004Z,79.54
2019-02-17T23:19:16.150Z,79.72
2019-02-17T23:21:50.343Z,79.95
2019-02-17T23:24:23.624Z,80.32
2019-02-17T23:26:57.147Z,80.48
2019-02-17T23:29:30.908Z,80.13
2019-02-17T23:32:04.850Z,79.94
2019-02-17T23:34:38.274Z,79.51
2019-02-17T23:37:11.748Z,79.47
2019-02-17T23:39:45.532Z,79.56
2019-02-17T23:42:19.354Z,79.28
2019-02-17T23:44:53.484Z,79.35
2019-02-17T23:47:36.463Z,79.50
2019-02-17T23:50:10.103Z,79.18
2019-02-17T23:52:45.158Z,79.12
2019-02-17T23:55:27.296Z,79.50
2019-02-17T23:58:01.465Z,79.90
